Time;durP1;ratioP1;P1;durP2;ratioP2;P2;SDS_P1;SDS_P2;PMS_P1;PMS_P2;Temp;Humidity;BMP_temperature;BMP_pressure;BME280_temperature;BME280_humidity;BME280_pressure;Samples;Min_cycle;Max_cycle;Signal;HPM_P1;HPM_P2
2022/09/03 00:00:40;;;;;;;2.67;1.10;;;16.60;99.90;;;;;;5071697;28;20024;-70
2022/09/03 00:03:16;;;;;;;4.28;1.33;;;16.60;99.90;;;;;;5071973;28;20470;-72
2022/09/03 00:06:03;;;;;;;1.65;1.27;;;16.70;99.90;;;;;;5071389;28;20090;-72
2022/09/03 00:08:38;;;;;;;2.17;1.20;;;16.70;99.90;;;;;;5072136;28;20028;-72
2022/09/03 00:11:27;;;;;;;1.23;1.13;;;16.80;99.90;;;;;;5072586;28;20056;-72
2022/09/03 00:14:06;;;;;;;3.80;1.45;;;16.80;99.90;;;;;;5071327;28;20655;-72
2022/09/03 00:16:55;;;;;;;1.17;0.90;;;16.90;99.90;;;;;;5072118;28;20038;-70
2022/09/03 00:19:32;;;;;;;3.95;1.30;;;17.00;99.90;;;;;;5071911;28;20029;-72
2022/09/03 00:22:13;;;;;;;1.00;0.80;;;17.00;99.90;;;;;;5071696;28;20028;-72
2022/09/03 00:24:41;;;;;;;2.65;1.20;;;17.10;99.90;;;;;;5071053;28;20063;-72
2022/09/03 00:27:13;;;;;;;3.55;1.00;;;17.10;99.90;;;;;;5072108;28;20107;-72
2022/09/03 00:29:49;;;;;;;1.10;0.90;;;17.20;99.90;;;;;;5071071;28;20040;-71
2022/09/03 00:32:36;;;;;;;1.17;0.90;;;17.30;99.90;;;;;;5072183;28;20488;-72
2022/09/03 00:35:05;;;;;;;1.50;1.05;;;17.30;99.90;;;;;;5072035;28;20051;-72
2022/09/03 00:37:33;;;;;;;0.90;0.90;;;17.40;99.90;;;;;;5072001;28;20021;-71
2022/09/03 00:39:59;;;;;;;1.70;1.20;;;17.40;99.90;;;;;;5071462;28;20037;-71
2022/09/03 00:42:53;;;;;;;2.92;1.40;;;17.50;99.90;;;;;;5072005;28;20033;-72
2022/09/03 00:45:39;;;;;;;3.20;1.23;;;17.40;99.90;;;;;;5071448;28;20174;-72
2022/09/03 00:48:29;;;;;;;3.67;1.38;;;17.40;99.90;;;;;;5071576;28;20044;-72
2022/09/03 00:51:28;;;;;;;5.63;1.80;;;17.40;99.90;;;;;;5071088;28;20020;-72
2022/09/03 00:54:16;;;;;;;2.78;1.58;;;17.40;99.90;;;;;;5070976;28;20028;-71
2022/09/03 00:56:49;;;;;;;6.07;1.60;;;17.40;99.90;;;;;;5070909;28;20099;-71
2022/09/03 00:59:36;;;;;;;2.35;1.60;;;17.40;99.90;;;;;;5071952;28;20028;-72
2022/09/03 01:02:45;;;;;;;2.35;1.48;;;17.40;99.90;;;;;;5071539;28;20470;-73
2022/09/03 01:05:47;;;;;;;2.53;1.30;;;17.30;99.90;;;;;;5052768;28;20111;-72
2022/09/03 01:08:25;;;;;;;4.65;1.20;;;17.30;99.90;;;;;;5040042;28;20127;-70
2022/09/03 01:11:18;;;;;;;3.47;1.80;;;17.30;99.90;;;;;;5053028;28;20032;-71
2022/09/03 01:14:05;;;;;;;1.38;1.27;;;17.30;99.90;;;;;;5070897;28;20104;-71
2022/09/03 01:16:47;;;;;;;2.42;1.40;;;17.30;99.90;;;;;;5071647;28;20036;-72
2022/09/03 01:19:29;;;;;;;2.20;1.30;;;17.20;99.90;;;;;;5071706;28;20033;-71
2022/09/03 01:22:19;;;;;;;2.15;1.35;;;17.20;99.90;;;;;;5070421;28;20640;-72
2022/09/03 01:25:31;;;;;;;6.03;1.30;;;17.20;99.90;;;;;;5070607;28;20031;-71
2022/09/03 01:28:01;;;;;;;1.13;1.02;;;17.20;99.90;;;;;;5070524;28;20565;-71
2022/09/03 01:30:30;;;;;;;0.90;0.90;;;17.20;99.90;;;;;;5071691;28;20027;-71
2022/09/03 01:33:04;;;;;;;2.20;1.30;;;17.20;99.90;;;;;;5070689;28;20276;-71
2022/09/03 01:36:02;;;;;;;1.80;1.27;;;17.20;99.90;;;;;;5071420;28;20033;-71
2022/09/03 01:38:40;;;;;;;1.70;1.23;;;17.20;99.90;;;;;;5049733;28;20060;-71
2022/09/03 01:44:16;;;;;;;1.30;1.20;;;17.20;99.90;;;;;;5074883;28;20031;-71
2022/09/03 01:46:45;;;;;;;2.45;1.50;;;17.20;99.90;;;;;;5074699;28;20498;-70
2022/09/03 01:49:14;;;;;;;2.17;1.08;;;17.20;99.90;;;;;;5074886;28;20039;-71
2022/09/03 01:51:40;;;;;;;1.20;1.10;;;17.20;99.90;;;;;;5074166;28;20104;-70
2022/09/03 01:54:12;;;;;;;1.73;1.30;;;17.20;99.90;;;;;;5075368;28;20029;-71
2022/09/03 01:56:59;;;;;;;2.00;1.60;;;17.20;99.90;;;;;;5074545;28;20082;-70
2022/09/03 01:59:36;;;;;;;1.27;1.10;;;17.20;99.90;;;;;;5074801;28;20463;-71
2022/09/03 02:02:22;;;;;;;1.77;1.20;;;17.20;99.90;;;;;;5073958;28;20078;-71
2022/09/03 02:05:15;;;;;;;2.03;1.40;;;17.20;99.90;;;;;;5073725;28;20013;-71
2022/09/03 02:07:47;;;;;;;1.40;1.20;;;17.20;99.90;;;;;;5073804;28;20115;-71
2022/09/03 02:10:16;;;;;;;2.45;1.30;;;17.20;99.90;;;;;;5074592;28;20116;-71
2022/09/03 02:12:47;;;;;;;1.40;1.30;;;17.20;99.90;;;;;;5074087;28;20044;-72
2022/09/03 02:15:17;;;;;;;2.20;1.33;;;17.20;99.90;;;;;;5074434;28;20035;-72
2022/09/03 02:17:45;;;;;;;2.45;1.10;;;17.20;99.90;;;;;;5072924;28;20111;-71
2022/09/03 02:20:18;;;;;;;3.17;1.38;;;17.20;99.90;;;;;;5073595;28;20029;-71
2022/09/03 02:22:44;;;;;;;1.77;1.23;;;17.30;99.90;;;;;;5072461;28;20032;-71
2022/09/03 02:25:13;;;;;;;1.17;1.08;;;17.20;99.90;;;;;;5073346;28;20081;-71
2022/09/03 02:27:42;;;;;;;2.58;1.33;;;17.30;99.90;;;;;;5072993;28;20021;-70
2022/09/03 02:30:08;;;;;;;2.20;1.30;;;17.30;99.90;;;;;;5073320;28;20091;-71
2022/09/03 02:32:34;;;;;;;2.00;0.80;;;17.30;99.90;;;;;;5073890;28;20024;-71
2022/09/03 02:34:59;;;;;;;3.30;1.65;;;17.30;99.90;;;;;;5073350;28;20509;-70
2022/09/03 02:37:25;;;;;;;1.80;1.20;;;17.40;99.90;;;;;;5074205;28;20042;-70
2022/09/03 02:39:51;;;;;;;2.40;1.17;;;17.30;99.90;;;;;;5073237;28;20151;-70
2022/09/03 02:42:17;;;;;;;2.63;1.42;;;17.30;99.90;;;;;;5074329;28;20103;-71
2022/09/03 02:44:58;;;;;;;1.23;1.05;;;17.30;99.90;;;;;;5072549;28;20052;-70
2022/09/03 02:47:30;;;;;;;1.30;1.10;;;17.30;99.90;;;;;;5073879;28;20048;-70
2022/09/03 02:49:56;;;;;;;2.03;1.17;;;17.20;99.90;;;;;;5072580;28;20050;-70
2022/09/03 02:52:22;;;;;;;2.38;1.40;;;17.20;99.90;;;;;;5073518;28;20110;-70
2022/09/03 02:54:47;;;;;;;1.50;1.17;;;17.10;99.90;;;;;;5072671;28;20052;-70
2022/09/03 02:57:15;;;;;;;1.55;1.10;;;17.00;99.90;;;;;;5073423;28;20106;-70
2022/09/03 02:59:45;;;;;;;2.45;1.50;;;17.00;99.90;;;;;;5073200;28;20033;-69
2022/09/03 03:02:12;;;;;;;1.50;1.10;;;16.90;99.90;;;;;;5073339;28;20028;-70
2022/09/03 03:04:38;;;;;;;1.65;1.20;;;16.80;99.90;;;;;;5073144;28;20429;-71
2022/09/03 03:07:05;;;;;;;2.00;1.10;;;16.70;99.90;;;;;;5072811;28;20110;-70
2022/09/03 03:09:30;;;;;;;1.98;1.13;;;16.70;99.90;;;;;;5073492;28;20054;-70
2022/09/03 03:11:56;;;;;;;3.03;1.48;;;16.70;99.90;;;;;;5072542;28;20469;-70
2022/09/03 03:14:22;;;;;;;1.55;1.08;;;16.60;99.90;;;;;;5073467;28;20044;-71
2022/09/03 03:16:49;;;;;;;2.53;1.30;;;16.60;99.90;;;;;;5072524;28;20021;-70
2022/09/03 03:19:15;;;;;;;1.58;1.30;;;16.50;99.90;;;;;;5073143;28;20471;-71
2022/09/03 03:21:40;;;;;;;2.28;1.10;;;16.60;99.90;;;;;;5072938;28;20031;-69
2022/09/03 03:24:07;;;;;;;1.48;1.10;;;16.50;99.90;;;;;;5072838;28;20035;-71
2022/09/03 03:26:33;;;;;;;1.27;0.90;;;16.50;99.90;;;;;;5073027;28;20458;-70
2022/09/03 03:29:03;;;;;;;1.75;1.30;;;16.40;99.90;;;;;;5072371;28;20075;-70
2022/09/03 03:31:29;;;;;;;;;;;16.40;99.90;;;;;;5073492;28;20021;-70
2022/09/03 03:33:57;;;;;;;1.35;1.20;;;16.40;99.90;;;;;;5071806;28;19972;-70
2022/09/03 03:36:24;;;;;;;3.58;1.40;;;16.30;99.90;;;;;;5072913;28;20458;-70
2022/09/03 03:38:53;;;;;;;1.42;1.33;;;16.30;99.90;;;;;;5072126;28;20490;-70
2022/09/03 03:41:25;;;;;;;1.10;1.00;;;16.30;99.90;;;;;;5072589;28;20024;-70
2022/09/03 03:43:53;;;;;;;1.48;1.27;;;16.30;99.90;;;;;;5072104;28;20028;-70
2022/09/03 03:46:20;;;;;;;3.05;1.20;;;16.20;99.90;;;;;;5072260;28;20186;-71
2022/09/03 03:48:53;;;;;;;2.65;1.13;;;16.20;99.90;;;;;;5071615;28;20189;-70
2022/09/03 03:51:19;;;;;;;3.10;1.20;;;16.20;99.90;;;;;;5072544;28;20466;-71
2022/09/03 03:53:45;;;;;;;2.47;1.45;;;16.20;99.90;;;;;;5072108;28;20034;-69
2022/09/03 03:56:13;;;;;;;1.50;1.20;;;16.30;99.90;;;;;;5072365;28;20063;-70
2022/09/03 03:58:42;;;;;;;1.30;1.00;;;16.30;99.90;;;;;;5072613;28;20036;-70
2022/09/03 04:01:14;;;;;;;1.75;1.38;;;16.30;99.90;;;;;;5070930;28;20098;-70
2022/09/03 04:03:40;;;;;;;1.85;1.17;;;16.40;99.90;;;;;;5072386;28;20074;-70
2022/09/03 04:06:07;;;;;;;1.42;1.30;;;16.40;99.90;;;;;;5071446;28;20085;-70
2022/09/03 04:08:35;;;;;;;2.40;1.30;;;16.40;99.90;;;;;;5072395;28;20432;-71
2022/09/03 04:11:05;;;;;;;1.75;1.50;;;16.40;99.90;;;;;;5071493;28;20517;-70
2022/09/03 04:13:31;;;;;;;2.65;1.50;;;16.40;99.90;;;;;;5072286;28;20028;-70
2022/09/03 04:16:05;;;;;;;3.25;1.52;;;16.40;99.90;;;;;;5071328;28;20032;-71
2022/09/03 04:18:32;;;;;;;2.22;1.60;;;16.40;99.90;;;;;;5072306;28;20025;-71
2022/09/03 04:21:03;;;;;;;2.47;1.33;;;16.40;99.90;;;;;;5071395;28;20545;-72
2022/09/03 04:23:34;;;;;;;1.75;1.63;;;16.40;99.90;;;;;;5072261;28;20060;-71
2022/09/03 04:26:00;;;;;;;2.50;1.40;;;16.40;99.90;;;;;;5071480;28;20078;-70
2022/09/03 04:28:27;;;;;;;2.17;1.50;;;16.50;99.90;;;;;;5071757;28;20045;-71
2022/09/03 04:30:52;;;;;;;2.55;1.15;;;16.50;99.90;;;;;;5071422;28;20408;-71
2022/09/03 04:33:18;;;;;;;2.33;1.42;;;16.50;99.90;;;;;;5071803;28;20036;-71
2022/09/03 04:35:44;;;;;;;2.55;1.88;;;16.50;99.90;;;;;;5071701;28;20462;-70
2022/09/03 04:38:10;;;;;;;2.30;1.60;;;16.50;99.90;;;;;;5071503;28;20385;-71
2022/09/03 04:40:36;;;;;;;1.70;1.35;;;16.40;99.90;;;;;;5054002;28;20108;-71
2022/09/03 04:43:02;;;;;;;1.73;1.25;;;16.40;99.90;;;;;;5071073;28;20028;-72
2022/09/03 04:45:28;;;;;;;1.60;1.50;;;16.40;99.90;;;;;;5071571;28;20045;-71
2022/09/03 04:48:01;;;;;;;3.35;1.63;;;16.30;99.90;;;;;;5070982;28;20385;-71
2022/09/03 04:50:28;;;;;;;2.28;1.48;;;16.30;99.90;;;;;;5071877;28;20029;-71
2022/09/03 04:52:59;;;;;;;2.25;1.52;;;16.30;99.90;;;;;;5071158;28;20035;-71
2022/09/03 04:55:25;;;;;;;2.17;1.73;;;16.30;99.90;;;;;;5054173;28;20024;-71
2022/09/03 04:57:50;;;;;;;5.05;1.80;;;16.30;99.90;;;;;;5071285;28;20028;-71
2022/09/03 05:00:17;;;;;;;2.40;1.70;;;16.30;99.90;;;;;;5071474;28;20097;-71
2022/09/03 05:02:48;;;;;;;2.00;1.55;;;16.30;99.90;;;;;;5071719;28;20466;-71
2022/09/03 05:05:13;;;;;;;3.25;1.40;;;16.30;99.90;;;;;;5071328;28;20104;-71
2022/09/03 05:07:40;;;;;;;1.67;1.58;;;16.30;99.90;;;;;;5071680;28;20155;-70
2022/09/03 05:10:08;;;;;;;2.53;1.70;;;16.40;99.90;;;;;;5070704;28;20072;-71
2022/09/03 05:12:33;;;;;;;2.45;1.70;;;16.40;99.90;;;;;;5073550;28;20089;-71
2022/09/03 05:14:59;;;;;;;2.42;1.67;;;16.40;99.90;;;;;;5075051;28;20025;-71
2022/09/03 05:17:26;;;;;;;5.57;1.60;;;16.50;99.90;;;;;;5075947;28;20035;-70
2022/09/03 05:19:52;;;;;;;2.35;1.65;;;16.50;99.90;;;;;;5074739;28;20039;-70
2022/09/03 05:22:20;;;;;;;3.35;1.75;;;16.60;99.90;;;;;;5075532;28;20361;-71
2022/09/03 05:24:47;;;;;;;1.92;1.70;;;16.60;99.90;;;;;;5075716;28;20130;-71
2022/09/03 05:27:15;;;;;;;3.47;1.80;;;16.60;99.90;;;;;;5075016;28;20020;-70
2022/09/03 05:29:41;;;;;;;3.28;1.50;;;16.60;99.90;;;;;;5075292;28;20044;-71
2022/09/03 05:32:07;;;;;;;3.50;1.80;;;16.60;99.90;;;;;;5074359;28;20239;-71
2022/09/03 05:34:32;;;;;;;3.38;1.48;;;16.70;99.90;;;;;;5057438;28;20525;-72
2022/09/03 05:36:58;;;;;;;2.08;1.45;;;16.70;99.90;;;;;;5074114;28;20027;-71
2022/09/03 05:39:24;;;;;;;7.63;2.08;;;16.80;99.90;;;;;;5075211;28;20032;-72
2022/09/03 05:41:51;;;;;;;3.40;1.63;;;16.80;99.90;;;;;;5074536;28;20067;-69
2022/09/03 05:44:16;;;;;;;2.50;1.70;;;16.90;99.90;;;;;;5074826;28;20098;-72
2022/09/03 05:46:42;;;;;;;2.08;1.60;;;16.90;99.90;;;;;;5075381;28;20036;-71
2022/09/03 05:49:08;;;;;;;5.93;1.70;;;17.00;99.90;;;;;;5074339;28;20036;-72
2022/09/03 05:51:35;;;;;;;3.22;1.70;;;17.00;99.90;;;;;;5056810;28;20470;-72
2022/09/03 05:54:01;;;;;;;1.92;1.60;;;17.10;99.90;;;;;;5074075;28;20351;-72
2022/09/03 05:56:29;;;;;;;2.45;1.60;;;17.10;99.90;;;;;;5074994;28;20413;-72
2022/09/03 05:58:59;;;;;;;1.77;1.58;;;17.10;99.90;;;;;;5075038;28;20107;-72
2022/09/03 06:01:28;;;;;;;1.85;1.60;;;17.20;99.90;;;;;;5078651;28;20063;-72
2022/09/03 06:03:59;;;;;;;2.40;1.45;;;17.20;99.90;;;;;;5058841;28;20037;-72
2022/09/03 06:06:26;;;;;;;6.35;2.15;;;17.20;99.90;;;;;;5075251;28;20579;-72
2022/09/03 06:09:03;;;;;;;2.15;1.70;;;17.30;99.90;;;;;;5077871;28;20093;-71
2022/09/03 06:11:31;;;;;;;2.17;1.80;;;17.30;99.90;;;;;;5077901;28;20035;-72
2022/09/03 06:14:06;;;;;;;3.17;1.63;;;17.40;99.90;;;;;;5070508;28;20029;-72
2022/09/03 06:16:34;;;;;;;2.13;1.63;;;17.40;99.90;;;;;;5074916;28;20381;-72
2022/09/03 06:19:00;;;;;;;1.95;1.70;;;17.40;99.90;;;;;;5073266;28;20029;-72
2022/09/03 06:21:26;;;;;;;2.95;1.75;;;17.30;99.90;;;;;;5074014;28;20319;-72
2022/09/03 06:23:55;;;;;;;2.10;1.90;;;17.40;99.90;;;;;;5072937;28;20032;-70
2022/09/03 06:26:22;;;;;;;3.27;1.63;;;17.40;99.90;;;;;;5074351;28;20020;-71
2022/09/03 06:28:48;;;;;;;7.03;2.05;;;17.40;99.90;;;;;;5073912;28;20326;-72
2022/09/03 06:31:21;;;;;;;3.88;1.77;;;17.40;99.90;;;;;;5085328;28;20142;-72
2022/09/03 06:33:47;;;;;;;1.85;1.55;;;17.50;99.90;;;;;;5094403;28;20032;-72
2022/09/03 06:36:15;;;;;;;4.13;1.80;;;17.60;99.90;;;;;;5085300;28;20040;-72
2022/09/03 06:38:41;;;;;;;2.28;1.65;;;17.70;99.90;;;;;;5073557;28;20033;-72
2022/09/03 06:41:11;;;;;;;1.98;1.73;;;17.80;99.90;;;;;;5072909;28;20388;-72
2022/09/03 06:43:40;;;;;;;4.18;2.00;;;17.90;99.90;;;;;;5073615;28;20052;-72
2022/09/03 06:46:14;;;;;;;2.45;1.70;;;17.90;99.90;;;;;;5072069;28;20080;-73
2022/09/03 06:48:41;;;;;;;2.15;1.60;;;18.00;99.90;;;;;;5072917;28;20093;-72
2022/09/03 06:51:09;;;;;;;5.10;2.22;;;18.00;99.90;;;;;;5072363;28;20086;-72
2022/09/03 06:53:40;;;;;;;2.88;1.83;;;18.10;99.90;;;;;;5073681;28;20033;-71
2022/09/03 06:56:10;;;;;;;2.75;1.98;;;18.10;99.90;;;;;;5073003;28;20020;-71
2022/09/03 06:58:41;;;;;;;6.63;2.20;;;18.20;99.90;;;;;;5073494;28;20071;-71
2022/09/03 07:01:09;;;;;;;4.30;1.80;;;18.20;99.90;;;;;;5072679;28;20055;-72
2022/09/03 07:03:37;;;;;;;3.70;2.28;;;18.20;99.90;;;;;;5073499;28;20031;-72
2022/09/03 07:06:04;;;;;;;4.47;2.15;;;18.30;99.90;;;;;;5072328;28;20036;-72
2022/09/03 07:08:32;;;;;;;2.78;2.15;;;18.40;99.90;;;;;;5066643;28;20063;-72
2022/09/03 07:11:13;;;;;;;4.85;1.88;;;18.50;99.90;;;;;;5068631;28;20020;-70
2022/09/03 07:13:43;;;;;;;4.70;2.40;;;18.60;99.90;;;;;;5072584;28;20053;-70
2022/09/03 07:16:20;;;;;;;2.63;2.03;;;18.60;99.90;;;;;;5057282;28;20041;-71
2022/09/03 07:18:46;;;;;;;5.03;2.90;;;18.70;99.90;;;;;;5072222;28;20549;-70
2022/09/03 07:21:17;;;;;;;2.88;2.45;;;18.80;99.90;;;;;;5064432;28;20107;-71
2022/09/03 07:23:44;;;;;;;5.30;2.42;;;18.90;99.90;;;;;;5071749;28;20109;-72
2022/09/03 07:26:30;;;;;;;3.05;2.13;;;18.90;99.90;;;;;;5069581;28;20473;-72
2022/09/03 07:28:56;;;;;;;5.60;2.17;;;19.00;99.90;;;;;;5059234;28;20520;-74
2022/09/03 07:31:28;;;;;;;3.05;2.03;;;19.10;99.90;;;;;;5061171;28;20393;-71
2022/09/03 07:33:55;;;;;;;2.42;2.05;;;19.10;99.90;;;;;;5071888;28;20283;-74
2022/09/03 07:36:22;;;;;;;2.85;2.13;;;19.20;99.90;;;;;;5070210;28;20036;-72
2022/09/03 07:38:48;;;;;;;2.53;2.00;;;19.20;99.90;;;;;;5072328;28;20086;-71
2022/09/03 07:41:14;;;;;;;3.20;2.38;;;19.30;99.90;;;;;;5069588;28;20630;-72
2022/09/03 07:43:48;;;;;;;3.92;2.50;;;19.50;99.90;;;;;;5072362;28;20046;-72
2022/09/03 07:46:25;;;;;;;3.10;2.35;;;19.60;99.90;;;;;;5058058;28;20089;-71
2022/09/03 07:48:56;;;;;;;5.57;2.67;;;19.80;99.90;;;;;;5051835;28;20037;-72
2022/09/03 07:51:27;;;;;;;4.20;2.47;;;20.00;99.90;;;;;;5052293;28;20021;-72
2022/09/03 07:53:56;;;;;;;3.28;2.25;;;20.10;99.90;;;;;;5052000;28;20025;-74
2022/09/03 07:56:22;;;;;;;3.58;2.15;;;20.40;99.90;;;;;;5051288;28;20025;-72
2022/09/03 07:58:48;;;;;;;2.92;2.30;;;20.50;99.90;;;;;;5051853;28;20028;-71
2022/09/03 08:01:16;;;;;;;3.08;2.55;;;20.70;99.90;;;;;;5051142;28;20196;-73
2022/09/03 08:03:44;;;;;;;5.82;2.97;;;20.90;99.90;;;;;;5052035;28;20069;-73
2022/09/03 08:06:10;;;;;;;2.67;2.17;;;21.00;99.90;;;;;;5056491;28;20102;-71
2022/09/03 08:08:37;;;;;;;3.67;2.40;;;21.10;99.90;;;;;;5051133;28;20064;-71
2022/09/03 08:11:09;;;;;;;3.17;2.10;;;21.20;99.90;;;;;;5032616;28;20484;-71
2022/09/03 08:13:44;;;;;;;4.07;2.50;;;21.30;99.90;;;;;;5051515;28;20043;-72
2022/09/03 08:16:15;;;;;;;4.25;2.60;;;21.40;99.90;;;;;;5050998;28;20029;-70
2022/09/03 08:18:41;;;;;;;3.47;2.60;;;21.40;99.90;;;;;;5051547;28;20029;-70
2022/09/03 08:21:14;;;;;;;4.43;2.40;;;21.50;99.90;;;;;;5051686;28;20036;-73
2022/09/03 08:23:41;;;;;;;3.58;2.80;;;21.50;99.90;;;;;;5050766;28;20063;-72
2022/09/03 08:26:08;;;;;;;3.03;2.72;;;21.50;99.90;;;;;;5061392;28;20480;-72
2022/09/03 08:28:35;;;;;;;4.80;2.85;;;21.60;99.90;;;;;;5071325;28;20492;-72
2022/09/03 08:31:11;;;;;;;7.75;2.60;;;21.70;99.90;;;;;;5068666;28;20033;-72
2022/09/03 08:33:42;;;;;;;5.60;2.70;;;21.90;99.90;;;;;;5070868;28;20097;-70
2022/09/03 08:36:16;;;;;;;3.75;2.45;;;22.10;99.90;;;;;;5047891;28;20490;-72
2022/09/03 08:38:44;;;;;;;3.92;2.70;;;22.30;99.70;;;;;;5051593;28;20057;-70
2022/09/03 08:41:14;;;;;;;4.82;3.20;;;22.40;99.70;;;;;;5050071;28;20026;-73
2022/09/03 08:43:52;;;;;;;4.53;2.63;;;22.60;99.40;;;;;;5070482;28;20414;-72
2022/09/03 08:46:19;;;;;;;7.85;3.38;;;23.00;99.00;;;;;;5067813;28;20214;-74
2022/09/03 08:48:46;;;;;;;4.30;2.63;;;23.10;98.70;;;;;;5071054;28;20060;-73
2022/09/03 08:51:17;;;;;;;3.60;2.85;;;23.20;98.30;;;;;;5059092;28;20509;-73
2022/09/03 08:53:48;;;;;;;4.63;2.55;;;23.20;98.30;;;;;;5067975;28;20016;-69
2022/09/03 08:56:23;;;;;;;3.50;2.80;;;23.30;98.10;;;;;;5066815;28;20020;-70
2022/09/03 08:58:48;;;;;;;5.70;3.17;;;23.50;97.90;;;;;;5068682;28;20036;-70
2022/09/03 09:01:25;;;;;;;3.10;2.70;;;23.60;97.50;;;;;;5065944;28;20037;-71
2022/09/03 09:04:19;;;;;;;5.10;2.95;;;23.80;97.60;;;;;;5068782;28;20428;-71
2022/09/03 09:07:09;;;;;;;4.90;2.60;;;23.90;97.50;;;;;;5056884;28;20044;-73
2022/09/03 09:09:48;;;;;;;4.47;2.75;;;24.00;96.70;;;;;;5069150;28;20086;-71
2022/09/03 09:12:39;;;;;;;7.72;2.63;;;23.90;96.60;;;;;;5054194;28;20527;-72
2022/09/03 09:15:27;;;;;;;5.03;2.60;;;23.50;96.70;;;;;;5070179;28;20115;-71
2022/09/03 09:18:02;;;;;;;3.72;2.50;;;23.30;97.20;;;;;;5071581;28;20035;-72
2022/09/03 09:21:03;;;;;;;6.25;3.15;;;23.10;97.60;;;;;;5071131;28;20025;-72
2022/09/03 09:23:31;;;;;;;3.28;2.58;;;23.00;97.50;;;;;;5071488;28;20020;-72
2022/09/03 09:26:00;;;;;;;3.95;2.47;;;22.80;97.90;;;;;;5070958;28;20029;-74
2022/09/03 09:28:34;;;;;;;3.25;2.28;;;22.70;98.00;;;;;;5069855;28;20040;-72
2022/09/03 09:31:04;;;;;;;7.90;3.17;;;22.70;98.00;;;;;;5049724;28;20478;-75
2022/09/03 09:33:31;;;;;;;3.17;2.88;;;22.60;97.80;;;;;;5050698;28;20063;-74
2022/09/03 09:36:07;;;;;;;3.55;2.80;;;22.50;98.40;;;;;;5051172;28;20029;-75
2022/09/03 09:38:35;;;;;;;3.47;3.00;;;22.40;98.80;;;;;;5051053;28;20090;-75
2022/09/03 09:41:09;;;;;;;5.13;2.72;;;22.40;98.30;;;;;;5050497;28;20036;-74
2022/09/03 09:43:35;;;;;;;5.50;3.00;;;22.60;98.60;;;;;;5051096;28;20539;-75
2022/09/03 09:46:13;;;;;;;3.47;2.67;;;22.80;98.80;;;;;;5050039;28;20081;-74
2022/09/03 09:48:47;;;;;;;3.22;2.92;;;23.10;98.20;;;;;;5051226;28;20043;-75
2022/09/03 09:51:19;;;;;;;5.20;2.78;;;23.40;97.50;;;;;;5050399;28;20033;-76
2022/09/03 09:53:44;;;;;;;4.28;2.58;;;23.60;97.40;;;;;;5051419;28;20039;-76
2022/09/03 09:56:24;;;;;;;3.05;2.67;;;23.90;96.90;;;;;;5050073;28;20029;-75
2022/09/03 09:59:00;;;;;;;3.67;3.03;;;24.20;96.00;;;;;;5052530;28;20033;-71
2022/09/03 10:01:29;;;;;;;3.00;2.70;;;24.40;95.30;;;;;;5054336;28;20043;-76
2022/09/03 10:04:06;;;;;;;4.88;3.30;;;24.20;95.90;;;;;;5054955;28;20025;-76
2022/09/03 10:09:32;;;;;;;6.78;2.80;;;24.30;95.30;;;;;;5040608;28;20041;-76
2022/09/03 10:12:13;;;;;;;3.97;3.40;;;24.30;94.80;;;;;;5074632;28;20033;-76
2022/09/03 10:14:48;;;;;;;4.78;3.00;;;24.20;94.80;;;;;;5074617;28;20473;-76
2022/09/03 10:17:36;;;;;;;6.60;3.65;;;24.20;95.10;;;;;;5073750;28;20044;-76
2022/09/03 10:20:26;;;;;;;4.13;3.10;;;24.10;95.30;;;;;;5074268;28;20043;-74
2022/09/03 10:22:56;;;;;;;5.95;2.67;;;24.10;95.10;;;;;;5074629;28;20047;-76
2022/09/03 10:25:25;;;;;;;4.28;3.03;;;24.10;95.30;;;;;;5073858;28;20287;-77
2022/09/03 10:27:53;;;;;;;10.43;3.70;;;24.00;94.80;;;;;;5074326;28;20024;-76
2022/09/03 10:30:19;;;;;;;3.83;3.40;;;23.90;95.20;;;;;;5073500;28;20068;-76
2022/09/03 10:33:11;;;;;;;3.38;2.85;;;23.80;94.80;;;;;;5074662;28;20077;-76
2022/09/03 10:35:45;;;;;;;5.60;3.30;;;23.70;94.80;;;;;;5056368;28;20031;-76
2022/09/03 10:38:26;;;;;;;5.05;2.70;;;23.80;94.90;;;;;;5055772;28;20086;-76
2022/09/03 10:41:12;;;;;;;5.15;2.90;;;23.80;94.80;;;;;;5074218;28;20048;-75
2022/09/03 10:44:16;;;;;;;3.13;2.78;;;23.80;94.40;;;;;;5073738;28;20025;-76
2022/09/03 10:47:11;;;;;;;3.25;2.83;;;23.70;94.90;;;;;;5074088;28;20033;-76
2022/09/03 10:50:03;;;;;;;3.17;2.88;;;23.60;94.50;;;;;;5074046;28;20075;-76
2022/09/03 10:52:38;;;;;;;4.18;2.67;;;23.70;94.80;;;;;;5073731;28;20074;-76
2022/09/03 10:55:36;;;;;;;3.85;3.25;;;23.80;94.70;;;;;;5073554;28;20021;-74
2022/09/03 10:58:27;;;;;;;2.95;2.67;;;23.90;94.50;;;;;;5073509;28;20021;-74
2022/09/03 11:01:01;;;;;;;5.97;3.13;;;24.00;94.50;;;;;;5073393;28;20051;-76
2022/09/03 11:03:32;;;;;;;6.15;2.53;;;24.20;93.90;;;;;;5072857;28;20478;-76
2022/09/03 11:06:10;;;;;;;3.60;2.67;;;24.10;93.90;;;;;;5073565;28;20024;-75
2022/09/03 11:08:53;;;;;;;5.30;3.03;;;24.10;94.20;;;;;;5073485;28;20464;-76
2022/09/03 11:11:29;;;;;;;3.03;2.75;;;24.20;93.70;;;;;;5072692;28;20035;-76
2022/09/03 11:14:06;;;;;;;4.00;3.60;;;24.20;94.00;;;;;;5073225;28;20032;-76
2022/09/03 11:16:54;;;;;;;4.18;2.42;;;24.20;93.60;;;;;;5073467;28;20453;-76
2022/09/03 11:19:46;;;;;;;5.65;3.20;;;24.20;93.80;;;;;;5072565;28;20083;-76
2022/09/03 11:22:17;;;;;;;4.72;3.33;;;24.20;94.00;;;;;;5072409;28;20024;-75
2022/09/03 11:24:45;;;;;;;;;;;24.10;93.80;;;;;;5073615;28;20035;-76
2022/09/03 11:27:41;;;;;;;4.15;3.00;;;24.10;93.90;;;;;;5072392;28;19904;-75
2022/09/03 11:30:09;;;;;;;2.88;2.67;;;24.10;94.00;;;;;;5072559;28;20039;-74
2022/09/03 11:32:49;;;;;;;4.05;2.70;;;24.20;94.00;;;;;;5073178;28;20036;-75
2022/09/03 11:35:16;;;;;;;;;;;24.30;93.80;;;;;;5072708;28;20028;-76
2022/09/03 11:37:57;;;;;;;6.53;3.00;;;24.40;93.90;;;;;;5073006;28;19904;-75
2022/09/03 11:40:35;;;;;;;3.80;2.72;;;24.40;93.70;;;;;;5072193;28;20035;-75
2022/09/03 11:43:28;;;;;;;2.95;2.65;;;24.30;93.50;;;;;;5072823;28;20056;-75
2022/09/03 11:46:13;;;;;;;3.30;2.97;;;24.20;93.80;;;;;;5061735;28;20044;-76
2022/09/03 11:48:39;;;;;;;3.97;2.63;;;24.20;94.00;;;;;;5072781;28;20032;-76
2022/09/03 11:51:25;;;;;;;3.25;2.78;;;24.10;94.10;;;;;;5072695;28;20382;-75
2022/09/03 11:54:00;;;;;;;4.97;3.00;;;24.00;94.00;;;;;;5072776;28;20377;-76
2022/09/03 11:56:28;;;;;;;3.70;3.20;;;24.00;94.10;;;;;;5071780;28;20020;-75
2022/09/03 11:59:14;;;;;;;5.25;3.40;;;23.80;94.40;;;;;;5072088;28;20050;-75
2022/09/03 12:01:51;;;;;;;3.42;3.13;;;23.60;94.40;;;;;;5072253;28;20430;-76
2022/09/03 12:04:20;;;;;;;3.17;2.60;;;23.40;94.70;;;;;;5071626;28;20028;-75
2022/09/03 12:07:10;;;;;;;4.65;3.50;;;23.20;95.10;;;;;;5072216;28;20108;-75
2022/09/03 12:09:41;;;;;;;;;;;23.10;95.50;;;;;;5072974;28;20032;-75
2022/09/03 12:12:19;;;;;;;4.30;3.30;;;22.90;95.80;;;;;;5072166;28;19958;-74
2022/09/03 12:15:00;;;;;;;4.95;3.25;;;22.80;96.00;;;;;;5072101;28;20032;-76
2022/09/03 12:18:17;;;;;;;4.85;3.78;;;22.60;96.30;;;;;;5071654;28;20032;-76
2022/09/03 12:20:38;;;;;;;3.65;3.10;;;22.50;97.00;;;;;;5071615;28;20032;-75
2022/09/03 12:23:03;;;;;;;4.93;3.20;;;22.40;97.30;;;;;;5071981;28;20020;-75
2022/09/03 12:25:29;;;;;;;5.18;3.10;;;22.20;97.90;;;;;;5071454;28;20638;-75
2022/09/03 12:27:56;;;;;;;4.20;3.42;;;22.10;98.80;;;;;;5072236;28;20024;-76
2022/09/03 12:30:23;;;;;;;5.28;3.67;;;22.00;99.20;;;;;;5071027;28;20405;-75
2022/09/03 12:32:50;;;;;;;5.70;4.03;;;21.80;99.90;;;;;;5072083;28;20127;-75
2022/09/03 12:35:19;;;;;;;4.82;3.40;;;21.70;99.90;;;;;;5071225;28;20412;-76
2022/09/03 12:37:44;;;;;;;6.47;2.80;;;21.60;99.90;;;;;;5072158;28;20423;-76
2022/09/03 12:40:22;;;;;;;3.10;2.60;;;21.40;99.90;;;;;;5071577;28;20059;-74
2022/09/03 12:42:49;;;;;;;3.90;2.78;;;21.10;99.90;;;;;;5072142;28;20043;-76
2022/09/03 12:45:24;;;;;;;2.83;2.17;;;20.80;99.90;;;;;;5070607;28;20056;-76
2022/09/03 12:47:52;;;;;;;5.30;2.47;;;20.50;99.90;;;;;;5072192;28;20029;-76
2022/09/03 12:50:22;;;;;;;3.85;2.60;;;20.30;99.90;;;;;;5071219;28;20036;-76
2022/09/03 12:53:02;;;;;;;3.75;2.95;;;20.00;99.90;;;;;;5072184;28;20369;-76
2022/09/03 12:55:52;;;;;;;8.73;2.67;;;19.80;99.90;;;;;;5070987;28;20052;-76
2022/09/03 12:58:48;;;;;;;;;;;19.50;99.90;;;;;;5071526;28;20051;-75
2022/09/03 13:01:20;;;;;;;6.53;2.67;;;19.20;99.90;;;;;;5049058;28;19908;-75
2022/09/03 13:04:08;;;;;;;9.45;2.97;;;18.70;99.90;;;;;;5071788;28;20021;-75
2022/09/03 13:06:48;;;;;;;6.32;2.50;;;18.50;99.90;;;;;;5066484;28;20076;-76
2022/09/03 13:09:17;;;;;;;5.82;3.00;;;18.10;99.90;;;;;;5053123;28;20453;-74
2022/09/03 13:11:43;;;;;;;4.75;2.75;;;17.80;99.90;;;;;;5072057;28;20040;-75
2022/09/03 13:14:12;;;;;;;4.25;2.72;;;17.50;99.90;;;;;;5071759;28;20138;-74
2022/09/03 13:16:41;;;;;;;5.18;3.40;;;17.40;99.90;;;;;;5071460;28;20031;-75
2022/09/03 13:19:34;;;;;;;3.13;2.70;;;17.30;99.90;;;;;;5072176;28;20420;-75
2022/09/03 13:22:24;;;;;;;7.68;3.58;;;17.20;99.90;;;;;;5071915;28;20025;-75
2022/09/03 13:25:24;;;;;;;9.00;3.67;;;17.10;99.90;;;;;;5071741;28;20462;-75